Aquadale, NC

6:04 AM EST on March 06, 2015 (GMT -0500)
Stanly County | Change Station
CLOSE
Current Station
Airport
Location: Albemarle,
Elevation: 610 ft
Nearby Weather Stations
Active Advisory: Winter Weather Advisory

Elev 610 ft 35.42 °N, 80.15 °W | Updated 9 minutes ago

Overcast
Overcast
27 °F
Feels Like 18 °F
N
9
Wind Variable Wind from North
Gusts 16 mph

Today
High -- | Low -- °F
--% Chance of Precip.
Yesterday
High -- | Low -- °F
Precip. -- in
6:44 AM 6:20 PM
Full, 100% visible
Pressure 30.47 in
Visibility 10.0 miles
Clouds Overcast 2700 ft
Windchill 18 °F
Dew Point 19 °F
Humidity 73%
Rainfall 0.00 in
Snow Depth Not available.
UV 0 out of 12
Pollen 2.00 out of 12
Air Quality Not available.
Flu Activity Not available.
METAR KVUJ 061055Z AUTO 01008G14KT 10SM OVC027 M03/M07 A3047 RMK AO2 T10291072

More Conditions Fewer Conditions

Pressure 30.47 in
Visibility 10.0 miles
Clouds Overcast 2700 ft
Windchill 18 °F
Dew Point 19 °F
Humidity 73%
Rainfall 0.00 in
Snow Depth Not available.
UV 0 out of 12
Pollen 2.00 out of 12
Air Quality Not available.
Flu Activity Not available.
METAR KVUJ 061055Z AUTO 01008G14KT 10SM OVC027 M03/M07 A3047 RMK AO2 T10291072

More Conditions Fewer Conditions

10-Day Weather Forecast

Almanac

Astronomy

Mar. 06, 2015 Rise Set
Actual Time
Civil Twilight
Nautical Twilight
Astronomical Twilight
Moon
Length of Visible Light
Length of Day
Tomorrow will be .
, % of the Moon is Illuminated

Today's Extremes

State Highs State Lows

Community

WunderPhotos

Upload Photos

1,803,223 photos uploaded!

WunderBlogs® & News

Nearby

Air Quality

  Air Quality AQ Index Pollutant
Not available.

Snow Depth

Station Depth Elevation

Earthquake Activity

City Distance Mag. Time & Date
Minimum magnitude displayed is 2.5.

Coastal Water Temperatures

Place Temperature

Nearby Weather Stations

Winter Weather Advisory
Statement as of 3:52 AM EST on March 06, 2015

... Winter Weather Advisory remains in effect until 10 am EST this
morning...

* locations... the sandhills and southern coastal plain...
including Southern Pines... Fayetteville... Clinton... and
surrounding areas.

* Hazard types... patchy black ice on sidewalks and roads.

* Timing... through 1000 am this morning.

* Impacts... hazardous travel and walking conditions.

* Temperatures... 20s rising into the lower 30s by 1000 am.

Precautionary/preparedness actions...

Motorists should exercise extreme caution tonight into Friday
morning... especially at intersections... on ramps and exit
ramps... bridges... and overpasses... where accidents are most
likely.